sensor_id;sensor_type;location;lat;lon;timestamp;pressure;altitude;pressure_sealevel;temperature;humidity
64614;BME280;51025;37.772;-122.432;2022-07-04T00:02:01;101039.14;;;20.21;31.35
64614;BME280;51025;37.772;-122.432;2022-07-04T00:04:29;101044.89;;;20.95;31.03
64614;BME280;51025;37.772;-122.432;2022-07-04T00:06:58;101039.30;;;19.84;31.67
64614;BME280;51025;37.772;-122.432;2022-07-04T00:09:26;101036.54;;;20.91;30.73
64614;BME280;51025;37.772;-122.432;2022-07-04T00:11:54;101047.48;;;20.42;30.93
64614;BME280;51025;37.772;-122.432;2022-07-04T00:14:23;101043.27;;;20.96;30.88
64614;BME280;51025;37.772;-122.432;2022-07-04T00:16:52;101027.36;;;21.51;30.30
64614;BME280;51025;37.772;-122.432;2022-07-04T00:19:20;101033.37;;;21.77;30.26
64614;BME280;51025;37.772;-122.432;2022-07-04T00:21:48;101029.27;;;21.58;30.29
64614;BME280;51025;37.772;-122.432;2022-07-04T00:24:16;101025.51;;;21.66;30.16
64614;BME280;51025;37.772;-122.432;2022-07-04T00:26:44;101035.49;;;21.04;30.55
64614;BME280;51025;37.772;-122.432;2022-07-04T00:29:13;101033.74;;;20.89;30.40
64614;BME280;51025;37.772;-122.432;2022-07-04T00:31:42;101024.36;;;21.36;30.39
64614;BME280;51025;37.772;-122.432;2022-07-04T00:34:11;101022.41;;;21.57;30.18
64614;BME280;51025;37.772;-122.432;2022-07-04T00:36:39;101019.88;;;21.36;30.36
64614;BME280;51025;37.772;-122.432;2022-07-04T00:39:08;101019.84;;;20.74;30.49
64614;BME280;51025;37.772;-122.432;2022-07-04T00:41:37;101022.35;;;21.40;30.58
64614;BME280;51025;37.772;-122.432;2022-07-04T00:44:08;101018.89;;;20.49;30.65
64614;BME280;51025;37.772;-122.432;2022-07-04T00:46:36;101017.38;;;21.19;30.24
64614;BME280;51025;37.772;-122.432;2022-07-04T00:49:05;101023.26;;;20.52;30.47
64614;BME280;51025;37.772;-122.432;2022-07-04T00:51:34;101016.88;;;21.53;29.72
64614;BME280;51025;37.772;-122.432;2022-07-04T00:54:03;101012.00;;;20.93;29.86
64614;BME280;51025;37.772;-122.432;2022-07-04T00:56:33;101014.85;;;20.98;29.79
64614;BME280;51025;37.772;-122.432;2022-07-04T00:59:03;101006.49;;;20.11;30.71
64614;BME280;51025;37.772;-122.432;2022-07-04T01:01:32;101010.93;;;20.92;30.37
64614;BME280;51025;37.772;-122.432;2022-07-04T01:04:04;101006.77;;;20.77;30.53
64614;BME280;51025;37.772;-122.432;2022-07-04T01:06:33;101006.25;;;21.17;30.55
64614;BME280;51025;37.772;-122.432;2022-07-04T01:09:02;100994.84;;;21.07;29.74
64614;BME280;51025;37.772;-122.432;2022-07-04T01:11:31;100999.66;;;21.76;29.78
64614;BME280;51025;37.772;-122.432;2022-07-04T01:14:00;101000.65;;;21.32;30.06
64614;BME280;51025;37.772;-122.432;2022-07-04T01:16:28;100994.32;;;20.59;30.40
64614;BME280;51025;37.772;-122.432;2022-07-04T01:18:58;101000.85;;;21.65;30.12
64614;BME280;51025;37.772;-122.432;2022-07-04T01:21:26;101003.17;;;21.86;29.74
64614;BME280;51025;37.772;-122.432;2022-07-04T01:23:55;100996.18;;;21.24;29.97
64614;BME280;51025;37.772;-122.432;2022-07-04T01:26:24;100997.87;;;20.97;30.34
64614;BME280;51025;37.772;-122.432;2022-07-04T01:28:53;101000.55;;;21.74;29.94
64614;BME280;51025;37.772;-122.432;2022-07-04T01:31:21;100999.11;;;21.16;29.77
64614;BME280;51025;37.772;-122.432;2022-07-04T01:33:50;100995.49;;;21.14;30.19
64614;BME280;51025;37.772;-122.432;2022-07-04T01:36:18;100999.98;;;20.99;29.97
64614;BME280;51025;37.772;-122.432;2022-07-04T01:38:46;100998.90;;;21.78;30.00
64614;BME280;51025;37.772;-122.432;2022-07-04T01:41:14;100993.51;;;21.14;30.20
64614;BME280;51025;37.772;-122.432;2022-07-04T01:43:43;100993.23;;;20.57;30.74
64614;BME280;51025;37.772;-122.432;2022-07-04T01:46:12;100996.61;;;21.22;30.12
64614;BME280;51025;37.772;-122.432;2022-07-04T01:48:40;100995.05;;;21.02;30.29
64614;BME280;51025;37.772;-122.432;2022-07-04T01:51:08;101000.10;;;20.36;30.51
64614;BME280;51025;37.772;-122.432;2022-07-04T01:53:37;101005.93;;;21.35;30.33
64614;BME280;51025;37.772;-122.432;2022-07-04T01:56:05;101007.44;;;20.65;30.22
64614;BME280;51025;37.772;-122.432;2022-07-04T01:58:34;101007.41;;;20.88;30.75
64614;BME280;51025;37.772;-122.432;2022-07-04T02:01:03;101020.16;;;20.17;30.73
64614;BME280;51025;37.772;-122.432;2022-07-04T02:03:32;101018.11;;;21.35;30.36
64614;BME280;51025;37.772;-122.432;2022-07-04T02:06:00;101015.98;;;20.23;31.26
64614;BME280;51025;37.772;-122.432;2022-07-04T02:08:29;101020.96;;;21.10;30.66
64614;BME280;51025;37.772;-122.432;2022-07-04T02:10:57;101021.41;;;20.93;30.77
64614;BME280;51025;37.772;-122.432;2022-07-04T02:13:25;101032.69;;;20.98;30.77
64614;BME280;51025;37.772;-122.432;2022-07-04T02:15:53;101034.15;;;20.47;31.19
64614;BME280;51025;37.772;-122.432;2022-07-04T02:18:22;101027.04;;;19.98;31.86
64614;BME280;51025;37.772;-122.432;2022-07-04T02:20:50;101032.80;;;20.47;31.45
64614;BME280;51025;37.772;-122.432;2022-07-04T02:23:18;101034.95;;;20.59;31.09
64614;BME280;51025;37.772;-122.432;2022-07-04T02:25:46;101035.07;;;20.70;31.29
64614;BME280;51025;37.772;-122.432;2022-07-04T02:28:15;101030.17;;;20.40;31.83
64614;BME280;51025;37.772;-122.432;2022-07-04T02:30:42;101025.84;;;20.63;31.87
64614;BME280;51025;37.772;-122.432;2022-07-04T02:33:11;101027.52;;;20.29;31.65
64614;BME280;51025;37.772;-122.432;2022-07-04T02:35:39;101028.81;;;20.14;32.06
64614;BME280;51025;37.772;-122.432;2022-07-04T02:38:07;101025.22;;;19.61;32.08
64614;BME280;51025;37.772;-122.432;2022-07-04T02:40:35;101025.53;;;20.38;32.09
64614;BME280;51025;37.772;-122.432;2022-07-04T02:43:03;101034.12;;;19.12;32.45
64614;BME280;51025;37.772;-122.432;2022-07-04T02:45:32;101023.71;;;20.30;32.01
64614;BME280;51025;37.772;-122.432;2022-07-04T02:48:00;101023.02;;;20.35;31.92
64614;BME280;51025;37.772;-122.432;2022-07-04T02:50:28;101019.84;;;19.95;31.88
64614;BME280;51025;37.772;-122.432;2022-07-04T02:52:56;101015.56;;;19.96;32.31
64614;BME280;51025;37.772;-122.432;2022-07-04T02:55:25;101016.05;;;20.03;31.94
64614;BME280;51025;37.772;-122.432;2022-07-04T02:57:52;101014.98;;;20.02;32.23
64614;BME280;51025;37.772;-122.432;2022-07-04T03:00:21;101019.37;;;19.90;32.35
64614;BME280;51025;37.772;-122.432;2022-07-04T03:02:50;101013.68;;;19.54;32.56
64614;BME280;51025;37.772;-122.432;2022-07-04T03:05:18;101015.95;;;18.96;33.52
64614;BME280;51025;37.772;-122.432;2022-07-04T03:07:47;101017.12;;;18.81;33.81
64614;BME280;51025;37.772;-122.432;2022-07-04T03:10:16;101020.48;;;19.27;33.57
64614;BME280;51025;37.772;-122.432;2022-07-04T03:12:44;101022.33;;;19.91;32.67
64614;BME280;51025;37.772;-122.432;2022-07-04T03:15:13;101025.49;;;19.11;33.62
64614;BME280;51025;37.772;-122.432;2022-07-04T03:17:41;101022.37;;;19.74;32.87
64614;BME280;51025;37.772;-122.432;2022-07-04T03:20:10;101029.37;;;19.10;33.32
64614;BME280;51025;37.772;-122.432;2022-07-04T03:22:38;101028.75;;;19.29;33.51
64614;BME280;51025;37.772;-122.432;2022-07-04T03:25:07;101030.05;;;19.16;33.32
64614;BME280;51025;37.772;-122.432;2022-07-04T03:27:36;101027.74;;;19.38;33.52
64614;BME280;51025;37.772;-122.432;2022-07-04T03:30:06;101027.91;;;19.12;33.03
64614;BME280;51025;37.772;-122.432;2022-07-04T03:32:34;101032.74;;;19.81;32.99
64614;BME280;51025;37.772;-122.432;2022-07-04T03:35:03;101034.83;;;18.71;33.45
64614;BME280;51025;37.772;-122.432;2022-07-04T03:37:32;101041.78;;;19.52;33.48
64614;BME280;51025;37.772;-122.432;2022-07-04T03:40:01;101041.05;;;19.89;33.45
64614;BME280;51025;37.772;-122.432;2022-07-04T03:42:29;101042.35;;;19.29;33.68
64614;BME280;51025;37.772;-122.432;2022-07-04T03:44:58;101041.76;;;19.41;33.54
64614;BME280;51025;37.772;-122.432;2022-07-04T03:47:26;101039.80;;;20.15;32.41
64614;BME280;51025;37.772;-122.432;2022-07-04T03:49:54;101040.97;;;19.34;33.16
64614;BME280;51025;37.772;-122.432;2022-07-04T03:52:22;101040.46;;;19.16;33.38
64614;BME280;51025;37.772;-122.432;2022-07-04T03:54:50;101042.97;;;19.67;33.20
64614;BME280;51025;37.772;-122.432;2022-07-04T03:57:20;101044.16;;;19.24;33.25
64614;BME280;51025;37.772;-122.432;2022-07-04T03:59:48;101045.30;;;19.11;33.48
64614;BME280;51025;37.772;-122.432;2022-07-04T04:02:17;101043.35;;;19.63;33.67
64614;BME280;51025;37.772;-122.432;2022-07-04T04:04:46;101048.60;;;20.46;32.39
64614;BME280;51025;37.772;-122.432;2022-07-04T04:07:14;101049.94;;;20.32;32.70
64614;BME280;51025;37.772;-122.432;2022-07-04T04:09:43;101053.49;;;19.96;32.92
64614;BME280;51025;37.772;-122.432;2022-07-04T04:12:11;101051.14;;;19.10;33.48
64614;BME280;51025;37.772;-122.432;2022-07-04T04:14:39;101057.87;;;19.47;33.29
64614;BME280;51025;37.772;-122.432;2022-07-04T04:17:08;101054.26;;;18.91;33.52
64614;BME280;51025;37.772;-122.432;2022-07-04T04:19:37;101054.60;;;19.30;33.45
64614;BME280;51025;37.772;-122.432;2022-07-04T04:22:05;101054.43;;;19.00;33.53
64614;BME280;51025;37.772;-122.432;2022-07-04T04:24:33;101055.05;;;19.39;33.44
64614;BME280;51025;37.772;-122.432;2022-07-04T04:27:02;101056.98;;;18.58;33.49
64614;BME280;51025;37.772;-122.432;2022-07-04T04:29:30;101058.97;;;19.32;33.53
64614;BME280;51025;37.772;-122.432;2022-07-04T04:31:59;101061.12;;;19.57;33.24
64614;BME280;51025;37.772;-122.432;2022-07-04T04:34:28;101062.32;;;19.30;33.50
64614;BME280;51025;37.772;-122.432;2022-07-04T04:36:56;101066.78;;;20.18;32.71
64614;BME280;51025;37.772;-122.432;2022-07-04T04:39:25;101069.89;;;19.45;33.37
64614;BME280;51025;37.772;-122.432;2022-07-04T04:41:53;101069.91;;;19.14;33.27
64614;BME280;51025;37.772;-122.432;2022-07-04T04:44:21;101069.35;;;18.80;33.26
64614;BME280;51025;37.772;-122.432;2022-07-04T04:46:50;101074.53;;;19.54;32.89
64614;BME280;51025;37.772;-122.432;2022-07-04T04:49:19;101075.45;;;19.09;32.89
64614;BME280;51025;37.772;-122.432;2022-07-04T04:51:47;101075.64;;;19.40;32.65
64614;BME280;51025;37.772;-122.432;2022-07-04T04:54:15;101076.11;;;19.59;32.80
64614;BME280;51025;37.772;-122.432;2022-07-04T04:56:43;101078.96;;;19.08;32.87
64614;BME280;51025;37.772;-122.432;2022-07-04T04:59:12;101075.59;;;18.98;33.00
64614;BME280;51025;37.772;-122.432;2022-07-04T05:01:41;101076.31;;;19.49;32.87
64614;BME280;51025;37.772;-122.432;2022-07-04T05:04:09;101079.60;;;19.21;32.75
64614;BME280;51025;37.772;-122.432;2022-07-04T05:06:38;101080.27;;;19.54;32.87
64614;BME280;51025;37.772;-122.432;2022-07-04T05:09:07;101080.12;;;19.52;32.46
64614;BME280;51025;37.772;-122.432;2022-07-04T05:11:35;101081.27;;;19.04;32.92
64614;BME280;51025;37.772;-122.432;2022-07-04T05:14:04;101084.86;;;18.96;32.98
64614;BME280;51025;37.772;-122.432;2022-07-04T05:16:32;101082.57;;;19.60;33.17
64614;BME280;51025;37.772;-122.432;2022-07-04T05:19:01;101081.24;;;19.66;33.12
64614;BME280;51025;37.772;-122.432;2022-07-04T05:21:30;101083.97;;;19.62;33.07
64614;BME280;51025;37.772;-122.432;2022-07-04T05:23:59;101082.39;;;19.54;33.17
64614;BME280;51025;37.772;-122.432;2022-07-04T05:26:28;101083.65;;;19.71;33.02
64614;BME280;51025;37.772;-122.432;2022-07-04T05:28:57;101082.80;;;19.18;33.22
64614;BME280;51025;37.772;-122.432;2022-07-04T05:31:24;101085.07;;;20.08;32.37
64614;BME280;51025;37.772;-122.432;2022-07-04T05:33:53;101082.97;;;20.80;31.97
64614;BME280;51025;37.772;-122.432;2022-07-04T05:36:23;101080.63;;;20.03;32.65
64614;BME280;51025;37.772;-122.432;2022-07-04T05:38:52;101084.83;;;18.96;32.95
64614;BME280;51025;37.772;-122.432;2022-07-04T05:41:21;101084.90;;;19.10;32.78
64614;BME280;51025;37.772;-122.432;2022-07-04T05:43:49;101084.32;;;18.90;32.62
64614;BME280;51025;37.772;-122.432;2022-07-04T05:46:18;101085.21;;;19.20;32.66
64614;BME280;51025;37.772;-122.432;2022-07-04T05:48:46;101086.86;;;19.11;32.73
64614;BME280;51025;37.772;-122.432;2022-07-04T05:51:14;101088.20;;;19.05;32.81
64614;BME280;51025;37.772;-122.432;2022-07-04T05:53:42;101085.62;;;19.37;32.88
64614;BME280;51025;37.772;-122.432;2022-07-04T05:56:11;101082.35;;;18.93;32.88
64614;BME280;51025;37.772;-122.432;2022-07-04T05:58:39;101081.36;;;19.39;32.81
64614;BME280;51025;37.772;-122.432;2022-07-04T06:01:07;101079.17;;;19.61;32.98
64614;BME280;51025;37.772;-122.432;2022-07-04T06:03:36;101080.56;;;19.14;33.13
64614;BME280;51025;37.772;-122.432;2022-07-04T06:06:04;101080.58;;;18.67;33.10
64614;BME280;51025;37.772;-122.432;2022-07-04T06:08:33;101074.76;;;19.19;33.00
64614;BME280;51025;37.772;-122.432;2022-07-04T06:11:03;101071.63;;;19.02;32.91
64614;BME280;51025;37.772;-122.432;2022-07-04T06:13:31;101066.61;;;19.62;33.38
64614;BME280;51025;37.772;-122.432;2022-07-04T06:16:00;101064.21;;;18.68;33.87
64614;BME280;51025;37.772;-122.432;2022-07-04T06:18:29;101061.44;;;19.57;33.77
64614;BME280;51025;37.772;-122.432;2022-07-04T06:20:57;101058.55;;;19.08;33.87
64614;BME280;51025;37.772;-122.432;2022-07-04T06:23:26;101054.10;;;19.44;33.86
64614;BME280;51025;37.772;-122.432;2022-07-04T06:25:54;101055.63;;;19.37;33.89
64614;BME280;51025;37.772;-122.432;2022-07-04T06:28:22;101050.88;;;19.24;33.94
64614;BME280;51025;37.772;-122.432;2022-07-04T06:30:51;101051.02;;;19.22;33.93
64614;BME280;51025;37.772;-122.432;2022-07-04T06:33:19;101048.78;;;19.16;34.05
64614;BME280;51025;37.772;-122.432;2022-07-04T06:35:47;101049.20;;;19.16;33.97
64614;BME280;51025;37.772;-122.432;2022-07-04T06:38:18;101042.24;;;19.15;33.99
64614;BME280;51025;37.772;-122.432;2022-07-04T06:40:48;101042.95;;;19.15;33.99
64614;BME280;51025;37.772;-122.432;2022-07-04T06:43:16;101044.58;;;19.40;34.04
64614;BME280;51025;37.772;-122.432;2022-07-04T06:45:45;101046.62;;;18.98;34.12
64614;BME280;51025;37.772;-122.432;2022-07-04T06:48:14;101046.03;;;19.34;34.08
64614;BME280;51025;37.772;-122.432;2022-07-04T06:50:42;101046.33;;;19.22;34.26
64614;BME280;51025;37.772;-122.432;2022-07-04T06:53:12;101049.06;;;18.87;34.25
64614;BME280;51025;37.772;-122.432;2022-07-04T06:55:41;101048.93;;;19.11;34.34
64614;BME280;51025;37.772;-122.432;2022-07-04T06:58:10;101048.65;;;18.75;34.31
64614;BME280;51025;37.772;-122.432;2022-07-04T07:00:39;101048.94;;;17.61;34.34
64614;BME280;51025;37.772;-122.432;2022-07-04T07:03:08;101049.56;;;18.95;34.07
64614;BME280;51025;37.772;-122.432;2022-07-04T07:05:36;101056.82;;;18.85;34.16
64614;BME280;51025;37.772;-122.432;2022-07-04T07:08:05;101055.14;;;18.52;34.15
64614;BME280;51025;37.772;-122.432;2022-07-04T07:10:33;101054.48;;;18.74;34.20
64614;BME280;51025;37.772;-122.432;2022-07-04T07:13:02;101054.49;;;18.70;34.23
64614;BME280;51025;37.772;-122.432;2022-07-04T07:15:30;101052.91;;;19.17;34.12
64614;BME280;51025;37.772;-122.432;2022-07-04T07:17:58;101054.18;;;18.75;34.16
64614;BME280;51025;37.772;-122.432;2022-07-04T07:20:27;101055.14;;;18.45;34.07
64614;BME280;51025;37.772;-122.432;2022-07-04T07:22:55;101057.78;;;19.25;33.93
64614;BME280;51025;37.772;-122.432;2022-07-04T07:25:24;101052.45;;;19.04;34.15
64614;BME280;51025;37.772;-122.432;2022-07-04T07:27:52;101048.89;;;19.02;34.12
64614;BME280;51025;37.772;-122.432;2022-07-04T07:30:20;101049.55;;;19.03;34.07
64614;BME280;51025;37.772;-122.432;2022-07-04T07:32:49;101050.96;;;18.64;34.09
64614;BME280;51025;37.772;-122.432;2022-07-04T07:35:17;101051.71;;;18.95;34.11
64614;BME280;51025;37.772;-122.432;2022-07-04T07:37:45;101051.74;;;19.34;34.16
64614;BME280;51025;37.772;-122.432;2022-07-04T07:40:13;101052.64;;;18.57;34.12
64614;BME280;51025;37.772;-122.432;2022-07-04T07:42:41;101051.93;;;18.79;34.22
64614;BME280;51025;37.772;-122.432;2022-07-04T07:45:10;101050.63;;;18.54;34.10
64614;BME280;51025;37.772;-122.432;2022-07-04T07:47:39;101048.61;;;18.90;34.09
64614;BME280;51025;37.772;-122.432;2022-07-04T07:50:07;101048.59;;;18.56;34.03
64614;BME280;51025;37.772;-122.432;2022-07-04T07:52:36;101043.43;;;18.83;34.12
64614;BME280;51025;37.772;-122.432;2022-07-04T07:55:06;101039.26;;;18.54;34.02
64614;BME280;51025;37.772;-122.432;2022-07-04T07:57:34;101034.94;;;18.88;34.02
64614;BME280;51025;37.772;-122.432;2022-07-04T08:00:04;101032.76;;;18.43;34.13
64614;BME280;51025;37.772;-122.432;2022-07-04T08:02:33;101038.44;;;19.15;33.38
64614;BME280;51025;37.772;-122.432;2022-07-04T08:05:01;101041.91;;;19.16;33.88
64614;BME280;51025;37.772;-122.432;2022-07-04T08:07:30;101044.04;;;19.22;33.78
64614;BME280;51025;37.772;-122.432;2022-07-04T08:09:58;101042.94;;;18.88;33.72
64614;BME280;51025;37.772;-122.432;2022-07-04T08:12:27;101041.45;;;19.49;33.84
64614;BME280;51025;37.772;-122.432;2022-07-04T08:14:55;101041.47;;;19.31;34.03
64614;BME280;51025;37.772;-122.432;2022-07-04T08:17:23;101044.12;;;19.30;34.05
64614;BME280;51025;37.772;-122.432;2022-07-04T08:19:52;101043.26;;;18.41;34.11
64614;BME280;51025;37.772;-122.432;2022-07-04T08:22:20;101045.10;;;18.42;34.11
64614;BME280;51025;37.772;-122.432;2022-07-04T08:24:48;101044.46;;;18.43;34.07
64614;BME280;51025;37.772;-122.432;2022-07-04T08:27:16;101041.57;;;18.48;34.01
64614;BME280;51025;37.772;-122.432;2022-07-04T08:29:44;101041.89;;;18.93;33.92
64614;BME280;51025;37.772;-122.432;2022-07-04T08:32:13;101039.42;;;18.47;34.00
64614;BME280;51025;37.772;-122.432;2022-07-04T08:34:42;101038.89;;;18.88;33.93
64614;BME280;51025;37.772;-122.432;2022-07-04T08:37:10;101035.81;;;18.49;33.95
64614;BME280;51025;37.772;-122.432;2022-07-04T08:39:38;101032.08;;;18.73;34.02
64614;BME280;51025;37.772;-122.432;2022-07-04T08:42:09;101034.56;;;18.32;34.05
64614;BME280;51025;37.772;-122.432;2022-07-04T08:44:41;101038.34;;;18.51;34.23
64614;BME280;51025;37.772;-122.432;2022-07-04T08:47:18;101039.08;;;18.97;34.15
64614;BME280;51025;37.772;-122.432;2022-07-04T08:49:54;101036.41;;;18.81;33.89
64614;BME280;51025;37.772;-122.432;2022-07-04T08:52:33;101034.73;;;18.89;33.86
64614;BME280;51025;37.772;-122.432;2022-07-04T08:55:04;101032.95;;;18.18;33.78
64614;BME280;51025;37.772;-122.432;2022-07-04T08:57:32;101029.96;;;18.76;33.90
64614;BME280;51025;37.772;-122.432;2022-07-04T09:00:01;101026.85;;;19.11;33.92
64614;BME280;51025;37.772;-122.432;2022-07-04T09:02:30;101022.27;;;18.71;33.89
64614;BME280;51025;37.772;-122.432;2022-07-04T09:05:01;101022.72;;;18.43;33.84
64614;BME280;51025;37.772;-122.432;2022-07-04T09:07:30;101023.11;;;18.59;33.98
64614;BME280;51025;37.772;-122.432;2022-07-04T09:09:59;101025.83;;;18.99;34.00
64614;BME280;51025;37.772;-122.432;2022-07-04T09:12:27;101020.19;;;18.08;34.14
64614;BME280;51025;37.772;-122.432;2022-07-04T09:14:55;101019.33;;;18.45;34.12
64614;BME280;51025;37.772;-122.432;2022-07-04T09:17:23;101015.74;;;18.45;34.06
64614;BME280;51025;37.772;-122.432;2022-07-04T09:20:13;101015.69;;;18.42;34.08
64614;BME280;51025;37.772;-122.432;2022-07-04T09:22:42;101015.79;;;18.41;34.13
64614;BME280;51025;37.772;-122.432;2022-07-04T09:25:11;101016.00;;;18.42;34.08
64614;BME280;51025;37.772;-122.432;2022-07-04T09:27:42;101016.13;;;18.63;33.93
64614;BME280;51025;37.772;-122.432;2022-07-04T09:30:12;101014.55;;;18.18;33.92
64614;BME280;51025;37.772;-122.432;2022-07-04T09:32:43;101015.79;;;18.63;33.82
64614;BME280;51025;37.772;-122.432;2022-07-04T09:35:13;101013.45;;;18.28;33.92
64614;BME280;51025;37.772;-122.432;2022-07-04T09:37:45;101014.58;;;18.46;33.96
64614;BME280;51025;37.772;-122.432;2022-07-04T09:40:23;101018.16;;;18.61;33.88
64614;BME280;51025;37.772;-122.432;2022-07-04T09:42:52;101014.83;;;18.11;33.99
64614;BME280;51025;37.772;-122.432;2022-07-04T09:45:21;101014.21;;;18.49;34.00
64614;BME280;51025;37.772;-122.432;2022-07-04T09:47:50;101016.44;;;18.62;33.82
64614;BME280;51025;37.772;-122.432;2022-07-04T09:50:20;101019.81;;;18.39;34.02
64614;BME280;51025;37.772;-122.432;2022-07-04T09:52:54;101018.44;;;18.44;33.95
64614;BME280;51025;37.772;-122.432;2022-07-04T09:55:26;101018.34;;;18.07;33.99
64614;BME280;51025;37.772;-122.432;2022-07-04T09:57:57;101013.16;;;18.48;33.96
64614;BME280;51025;37.772;-122.432;2022-07-04T10:00:27;101010.87;;;18.52;33.84
64614;BME280;51025;37.772;-122.432;2022-07-04T10:02:58;101012.20;;;18.69;33.67
64614;BME280;51025;37.772;-122.432;2022-07-04T10:05:42;101012.89;;;18.66;33.75
64614;BME280;51025;37.772;-122.432;2022-07-04T10:08:12;101012.93;;;18.37;33.69
64614;BME280;51025;37.772;-122.432;2022-07-04T10:10:41;101011.43;;;18.30;33.73
64614;BME280;51025;37.772;-122.432;2022-07-04T10:13:11;101010.38;;;18.18;33.83
64614;BME280;51025;37.772;-122.432;2022-07-04T10:15:41;101007.45;;;18.96;33.77
64614;BME280;51025;37.772;-122.432;2022-07-04T10:18:11;101007.96;;;18.42;33.86
64614;BME280;51025;37.772;-122.432;2022-07-04T10:20:39;101006.22;;;19.00;33.68
64614;BME280;51025;37.772;-122.432;2022-07-04T10:23:10;100999.07;;;18.29;34.08
64614;BME280;51025;37.772;-122.432;2022-07-04T10:25:40;100998.01;;;18.77;33.91
64614;BME280;51025;37.772;-122.432;2022-07-04T10:28:09;101004.11;;;17.92;34.10
64614;BME280;51025;37.772;-122.432;2022-07-04T10:30:40;101007.95;;;18.64;34.07
64614;BME280;51025;37.772;-122.432;2022-07-04T10:33:09;101004.21;;;18.07;33.81
64614;BME280;51025;37.772;-122.432;2022-07-04T10:35:56;101005.83;;;18.29;34.01
64614;BME280;51025;37.772;-122.432;2022-07-04T10:38:26;101003.57;;;18.27;34.05
64614;BME280;51025;37.772;-122.432;2022-07-04T10:40:56;101001.72;;;17.97;33.90
64614;BME280;51025;37.772;-122.432;2022-07-04T10:43:55;100998.37;;;18.15;34.09
64614;BME280;51025;37.772;-122.432;2022-07-04T10:46:28;100996.10;;;18.78;33.91
64614;BME280;51025;37.772;-122.432;2022-07-04T10:48:59;100997.01;;;18.40;33.87
64614;BME280;51025;37.772;-122.432;2022-07-04T10:51:37;100995.92;;;18.74;33.91
64614;BME280;51025;37.772;-122.432;2022-07-04T10:54:09;100998.08;;;18.27;34.01
64614;BME280;51025;37.772;-122.432;2022-07-04T10:56:40;100998.02;;;17.88;34.08
64614;BME280;51025;37.772;-122.432;2022-07-04T10:59:12;100994.70;;;18.27;33.95
64614;BME280;51025;37.772;-122.432;2022-07-04T11:01:46;100987.02;;;18.28;33.90
64614;BME280;51025;37.772;-122.432;2022-07-04T11:04:45;100987.57;;;17.99;33.79
64614;BME280;51025;37.772;-122.432;2022-07-04T11:07:14;100990.73;;;17.98;33.86
64614;BME280;51025;37.772;-122.432;2022-07-04T11:09:42;100991.85;;;18.28;33.49
64614;BME280;51025;37.772;-122.432;2022-07-04T11:12:11;100993.81;;;18.47;33.69
64614;BME280;51025;37.772;-122.432;2022-07-04T11:14:41;100994.18;;;18.38;33.78
64614;BME280;51025;37.772;-122.432;2022-07-04T11:17:11;100991.20;;;18.16;33.65
64614;BME280;51025;37.772;-122.432;2022-07-04T11:19:41;100991.69;;;18.34;33.84
64614;BME280;51025;37.772;-122.432;2022-07-04T11:22:09;100991.77;;;18.36;33.73
64614;BME280;51025;37.772;-122.432;2022-07-04T11:24:38;100989.58;;;18.02;33.73
64614;BME280;51025;37.772;-122.432;2022-07-04T11:27:08;100988.13;;;17.93;33.80
64614;BME280;51025;37.772;-122.432;2022-07-04T11:29:36;100986.75;;;18.40;33.63
64614;BME280;51025;37.772;-122.432;2022-07-04T11:32:06;100983.38;;;18.06;33.75
64614;BME280;51025;37.772;-122.432;2022-07-04T11:34:34;100985.10;;;18.79;33.77
64614;BME280;51025;37.772;-122.432;2022-07-04T11:37:03;100987.73;;;17.99;33.82
64614;BME280;51025;37.772;-122.432;2022-07-04T11:39:32;100989.88;;;18.87;33.61
64614;BME280;51025;37.772;-122.432;2022-07-04T11:42:01;100985.94;;;18.27;33.78
64614;BME280;51025;37.772;-122.432;2022-07-04T11:44:33;100987.98;;;18.37;33.70
64614;BME280;51025;37.772;-122.432;2022-07-04T11:47:05;100988.55;;;18.62;33.89
64614;BME280;51025;37.772;-122.432;2022-07-04T11:49:33;100986.73;;;18.48;34.07
64614;BME280;51025;37.772;-122.432;2022-07-04T11:52:04;100983.64;;;17.96;34.17
64614;BME280;51025;37.772;-122.432;2022-07-04T11:54:32;100984.91;;;18.49;34.06
64614;BME280;51025;37.772;-122.432;2022-07-04T11:57:12;100985.02;;;18.05;34.06
64614;BME280;51025;37.772;-122.432;2022-07-04T11:59:42;100984.01;;;18.40;34.10
64614;BME280;51025;37.772;-122.432;2022-07-04T12:02:13;100985.43;;;18.42;34.24
64614;BME280;51025;37.772;-122.432;2022-07-04T12:04:42;100986.30;;;18.47;34.08
64614;BME280;51025;37.772;-122.432;2022-07-04T12:07:13;100984.09;;;18.39;34.13
64614;BME280;51025;37.772;-122.432;2022-07-04T12:09:43;100980.79;;;18.32;34.32
64614;BME280;51025;37.772;-122.432;2022-07-04T12:12:12;100976.86;;;18.40;34.15
64614;BME280;51025;37.772;-122.432;2022-07-04T12:14:48;100974.60;;;18.25;34.30
64614;BME280;51025;37.772;-122.432;2022-07-04T12:17:30;100979.03;;;18.25;34.32
64614;BME280;51025;37.772;-122.432;2022-07-04T12:20:00;100979.07;;;18.34;34.19
64614;BME280;51025;37.772;-122.432;2022-07-04T12:22:32;100977.32;;;18.32;34.23
64614;BME280;51025;37.772;-122.432;2022-07-04T12:25:02;100977.02;;;18.26;33.86
64614;BME280;51025;37.772;-122.432;2022-07-04T12:27:32;100973.97;;;18.02;34.21
64614;BME280;51025;37.772;-122.432;2022-07-04T12:30:02;100975.10;;;18.10;34.12
64614;BME280;51025;37.772;-122.432;2022-07-04T12:32:49;100976.35;;;18.10;34.04